Strona główna
METAR-TAF:

METAR-TAF

Lotnisko :

Islay, Szkocja

Szerokość geograficzna: 55-40-55N, Długość geograficzna: 006-15-24W, wysokość: 16 m

Aktualna obserwacja pogody

Raport powstał 29 minut temu, godzina 00:50 UTC
Wiatr 18 kt od wschodnio-południowy wschód, zmienny między wschodnio-północny wschód i południowo-południowy wschód
Temperatura 10°C
Wilgotność 82%
Ciśnienie 1005 hPa
Widzialność 10 km lub więcej

METAR: EGPI 310050Z AUTO 12018KT 070V150 9999 NCD 10/07 Q1005

czas: 01:19 (01:19 UTC)

Prognoza

Raport powstał 7 godziny i 18 minut temu, godzina 18:01 UTC
Prognoza ważna od 30 godzina 18 UTC do 30 godzina 19 UTC
Wiatr 8 kt od południe
Widzialność 10 km lub więcej
Rozproszone chmury na wysokości 2500 ft

TAF: EGPI 301801Z 3018/3019 17008KT 9999 SCT025

Obserwacja i prognoza pogody dla ponad 4000 lotnisk (raport METAR i TAF).

Dostępne stacje oznaczono żółtymi i czerwonymi punktami na mapie.

Najedź kursorem aby zobaczyć nazwę stacji.

Kliknij aby zobaczyć obserwacje i prognozy pogody.

Aby zmienić mapę: kliknij na zielony przycisk z czarnym krzyżykiem, aby powiększyć; na zielony przycisk z myślnikiem, aby pomniejszyć; na zielone strzałki, aby przejść do map sąsiednich.


METAR-TAF: